sensor_id;sensor_type;location;lat;lon;timestamp;P1;durP1;ratioP1;P2;durP2;ratioP2
84820;SDS011;75463;50.988;11.332;2024-03-02T00:02:05;30.00;;;16.60;;
84820;SDS011;75463;50.988;11.332;2024-03-02T00:04:31;30.40;;;16.45;;
84820;SDS011;75463;50.988;11.332;2024-03-02T00:06:56;30.90;;;16.30;;
84820;SDS011;75463;50.988;11.332;2024-03-02T00:09:22;27.30;;;16.77;;
84820;SDS011;75463;50.988;11.332;2024-03-02T00:11:47;28.02;;;15.55;;
84820;SDS011;75463;50.988;11.332;2024-03-02T00:14:13;34.07;;;18.50;;
84820;SDS011;75463;50.988;11.332;2024-03-02T00:16:38;27.17;;;14.98;;
84820;SDS011;75463;50.988;11.332;2024-03-02T00:19:03;29.35;;;16.48;;
84820;SDS011;75463;50.988;11.332;2024-03-02T00:21:31;28.90;;;17.92;;
84820;SDS011;75463;50.988;11.332;2024-03-02T00:23:58;27.67;;;15.20;;
84820;SDS011;75463;50.988;11.332;2024-03-02T00:26:23;26.50;;;15.00;;
84820;SDS011;75463;50.988;11.332;2024-03-02T00:28:49;26.25;;;15.52;;
84820;SDS011;75463;50.988;11.332;2024-03-02T00:31:15;22.27;;;13.02;;
84820;SDS011;75463;50.988;11.332;2024-03-02T00:33:43;30.85;;;15.35;;
84820;SDS011;75463;50.988;11.332;2024-03-02T00:36:11;24.73;;;13.90;;
84820;SDS011;75463;50.988;11.332;2024-03-02T00:38:46;24.42;;;14.73;;
84820;SDS011;75463;50.988;11.332;2024-03-02T00:41:22;24.60;;;13.68;;
84820;SDS011;75463;50.988;11.332;2024-03-02T00:44:03;24.33;;;12.43;;
84820;SDS011;75463;50.988;11.332;2024-03-02T00:46:34;24.52;;;13.52;;
84820;SDS011;75463;50.988;11.332;2024-03-02T00:49:04;21.67;;;13.50;;
84820;SDS011;75463;50.988;11.332;2024-03-02T00:51:51;24.08;;;13.80;;
84820;SDS011;75463;50.988;11.332;2024-03-02T00:54:27;22.35;;;12.90;;
84820;SDS011;75463;50.988;11.332;2024-03-02T00:56:53;23.73;;;14.23;;
84820;SDS011;75463;50.988;11.332;2024-03-02T00:59:21;24.00;;;13.75;;
84820;SDS011;75463;50.988;11.332;2024-03-02T01:01:47;25.52;;;14.25;;
84820;SDS011;75463;50.988;11.332;2024-03-02T01:04:14;18.63;;;12.02;;
84820;SDS011;75463;50.988;11.332;2024-03-02T01:06:39;24.23;;;12.85;;
84820;SDS011;75463;50.988;11.332;2024-03-02T01:09:05;25.23;;;13.50;;
84820;SDS011;75463;50.988;11.332;2024-03-02T01:11:31;25.08;;;14.50;;
84820;SDS011;75463;50.988;11.332;2024-03-02T01:13:56;24.05;;;14.77;;
84820;SDS011;75463;50.988;11.332;2024-03-02T01:16:21;22.75;;;13.15;;
84820;SDS011;75463;50.988;11.332;2024-03-02T01:18:47;26.52;;;14.77;;
84820;SDS011;75463;50.988;11.332;2024-03-02T01:21:12;22.70;;;13.30;;
84820;SDS011;75463;50.988;11.332;2024-03-02T01:23:38;28.03;;;14.37;;
84820;SDS011;75463;50.988;11.332;2024-03-02T01:26:03;21.02;;;13.10;;
84820;SDS011;75463;50.988;11.332;2024-03-02T01:28:29;22.70;;;12.70;;
84820;SDS011;75463;50.988;11.332;2024-03-02T01:30:54;22.08;;;13.23;;
84820;SDS011;75463;50.988;11.332;2024-03-02T01:33:19;24.88;;;14.27;;
84820;SDS011;75463;50.988;11.332;2024-03-02T01:35:46;25.65;;;13.63;;
84820;SDS011;75463;50.988;11.332;2024-03-02T01:38:11;24.80;;;13.45;;
84820;SDS011;75463;50.988;11.332;2024-03-02T01:40:37;24.05;;;12.43;;
84820;SDS011;75463;50.988;11.332;2024-03-02T01:43:06;25.67;;;13.98;;
84820;SDS011;75463;50.988;11.332;2024-03-02T01:45:32;21.95;;;13.52;;
84820;SDS011;75463;50.988;11.332;2024-03-02T01:47:57;27.98;;;15.18;;
84820;SDS011;75463;50.988;11.332;2024-03-02T01:50:31;29.08;;;15.60;;
84820;SDS011;75463;50.988;11.332;2024-03-02T01:55:23;28.55;;;15.00;;
84820;SDS011;75463;50.988;11.332;2024-03-02T01:57:49;25.27;;;14.30;;
84820;SDS011;75463;50.988;11.332;2024-03-02T02:00:16;24.00;;;13.50;;
84820;SDS011;75463;50.988;11.332;2024-03-02T02:02:41;25.05;;;14.77;;
84820;SDS011;75463;50.988;11.332;2024-03-02T02:05:07;25.98;;;13.55;;
84820;SDS011;75463;50.988;11.332;2024-03-02T02:07:32;25.55;;;13.82;;
84820;SDS011;75463;50.988;11.332;2024-03-02T02:09:59;25.45;;;14.18;;
84820;SDS011;75463;50.988;11.332;2024-03-02T02:12:26;21.88;;;13.55;;
84820;SDS011;75463;50.988;11.332;2024-03-02T02:14:51;22.30;;;14.65;;
84820;SDS011;75463;50.988;11.332;2024-03-02T02:17:16;23.70;;;14.45;;
84820;SDS011;75463;50.988;11.332;2024-03-02T02:19:42;23.10;;;13.25;;
84820;SDS011;75463;50.988;11.332;2024-03-02T02:22:08;24.73;;;16.42;;
84820;SDS011;75463;50.988;11.332;2024-03-02T02:24:33;22.60;;;15.35;;
84820;SDS011;75463;50.988;11.332;2024-03-02T02:26:59;28.35;;;14.45;;
84820;SDS011;75463;50.988;11.332;2024-03-02T02:29:24;28.98;;;14.45;;
84820;SDS011;75463;50.988;11.332;2024-03-02T02:31:49;23.47;;;12.93;;
84820;SDS011;75463;50.988;11.332;2024-03-02T02:34:15;25.38;;;14.02;;
84820;SDS011;75463;50.988;11.332;2024-03-02T02:36:41;25.55;;;14.45;;
84820;SDS011;75463;50.988;11.332;2024-03-02T02:39:08;24.95;;;15.55;;
84820;SDS011;75463;50.988;11.332;2024-03-02T02:41:36;24.13;;;13.65;;
84820;SDS011;75463;50.988;11.332;2024-03-02T02:44:02;21.67;;;12.90;;
84820;SDS011;75463;50.988;11.332;2024-03-02T02:46:27;21.15;;;14.05;;
84820;SDS011;75463;50.988;11.332;2024-03-02T02:48:52;25.67;;;13.07;;
84820;SDS011;75463;50.988;11.332;2024-03-02T02:51:18;27.67;;;14.48;;
84820;SDS011;75463;50.988;11.332;2024-03-02T02:53:44;24.27;;;13.68;;
84820;SDS011;75463;50.988;11.332;2024-03-02T02:56:09;24.60;;;14.87;;
84820;SDS011;75463;50.988;11.332;2024-03-02T02:58:34;30.90;;;16.08;;
84820;SDS011;75463;50.988;11.332;2024-03-02T03:01:00;29.27;;;14.70;;
84820;SDS011;75463;50.988;11.332;2024-03-02T03:03:26;26.80;;;13.98;;
84820;SDS011;75463;50.988;11.332;2024-03-02T03:05:51;28.73;;;14.68;;
84820;SDS011;75463;50.988;11.332;2024-03-02T03:08:16;30.30;;;14.70;;
84820;SDS011;75463;50.988;11.332;2024-03-02T03:10:42;26.05;;;13.25;;
84820;SDS011;75463;50.988;11.332;2024-03-02T03:13:07;25.98;;;14.20;;
84820;SDS011;75463;50.988;11.332;2024-03-02T03:15:34;25.42;;;14.57;;
84820;SDS011;75463;50.988;11.332;2024-03-02T03:18:01;29.77;;;15.45;;
84820;SDS011;75463;50.988;11.332;2024-03-02T03:20:28;31.17;;;15.98;;
84820;SDS011;75463;50.988;11.332;2024-03-02T03:22:54;26.27;;;13.88;;
84820;SDS011;75463;50.988;11.332;2024-03-02T03:25:19;26.17;;;13.82;;
84820;SDS011;75463;50.988;11.332;2024-03-02T03:27:44;23.67;;;13.35;;
84820;SDS011;75463;50.988;11.332;2024-03-02T03:30:11;25.60;;;14.85;;
84820;SDS011;75463;50.988;11.332;2024-03-02T03:32:36;24.23;;;14.13;;
84820;SDS011;75463;50.988;11.332;2024-03-02T03:35:02;28.40;;;14.90;;
84820;SDS011;75463;50.988;11.332;2024-03-02T03:37:28;31.00;;;14.73;;
84820;SDS011;75463;50.988;11.332;2024-03-02T03:39:57;28.23;;;14.82;;
84820;SDS011;75463;50.988;11.332;2024-03-02T03:42:22;30.73;;;15.35;;
84820;SDS011;75463;50.988;11.332;2024-03-02T03:44:48;26.60;;;14.45;;
84820;SDS011;75463;50.988;11.332;2024-03-02T03:47:13;25.77;;;13.57;;
84820;SDS011;75463;50.988;11.332;2024-03-02T03:49:38;30.27;;;15.77;;
84820;SDS011;75463;50.988;11.332;2024-03-02T03:52:04;30.67;;;15.50;;
84820;SDS011;75463;50.988;11.332;2024-03-02T03:54:29;28.27;;;14.80;;
84820;SDS011;75463;50.988;11.332;2024-03-02T03:56:54;28.00;;;15.43;;
84820;SDS011;75463;50.988;11.332;2024-03-02T03:59:21;27.30;;;14.50;;
84820;SDS011;75463;50.988;11.332;2024-03-02T04:01:46;29.27;;;15.70;;
84820;SDS011;75463;50.988;11.332;2024-03-02T04:04:11;31.08;;;16.45;;
84820;SDS011;75463;50.988;11.332;2024-03-02T04:06:37;32.80;;;18.37;;
84820;SDS011;75463;50.988;11.332;2024-03-02T04:09:02;30.20;;;14.43;;
84820;SDS011;75463;50.988;11.332;2024-03-02T04:11:28;28.27;;;15.77;;
84820;SDS011;75463;50.988;11.332;2024-03-02T04:13:54;26.30;;;15.18;;
84820;SDS011;75463;50.988;11.332;2024-03-02T04:16:19;29.83;;;16.10;;
84820;SDS011;75463;50.988;11.332;2024-03-02T04:18:45;28.70;;;15.65;;
84820;SDS011;75463;50.988;11.332;2024-03-02T04:21:10;32.72;;;15.60;;
84820;SDS011;75463;50.988;11.332;2024-03-02T04:23:36;31.70;;;15.52;;
84820;SDS011;75463;50.988;11.332;2024-03-02T04:26:01;32.40;;;17.60;;
84820;SDS011;75463;50.988;11.332;2024-03-02T04:28:26;31.60;;;15.77;;
84820;SDS011;75463;50.988;11.332;2024-03-02T04:30:52;31.57;;;15.80;;
84820;SDS011;75463;50.988;11.332;2024-03-02T04:33:17;30.20;;;16.17;;
84820;SDS011;75463;50.988;11.332;2024-03-02T04:35:42;31.97;;;16.50;;
84820;SDS011;75463;50.988;11.332;2024-03-02T04:38:08;31.33;;;15.55;;
84820;SDS011;75463;50.988;11.332;2024-03-02T04:40:33;32.80;;;16.00;;
84820;SDS011;75463;50.988;11.332;2024-03-02T04:42:58;34.17;;;17.00;;
84820;SDS011;75463;50.988;11.332;2024-03-02T04:45:27;29.48;;;14.75;;
84820;SDS011;75463;50.988;11.332;2024-03-02T04:47:53;32.00;;;15.70;;
84820;SDS011;75463;50.988;11.332;2024-03-02T04:50:18;31.45;;;15.65;;
84820;SDS011;75463;50.988;11.332;2024-03-02T04:52:44;26.13;;;15.40;;
84820;SDS011;75463;50.988;11.332;2024-03-02T04:55:09;32.50;;;16.65;;
84820;SDS011;75463;50.988;11.332;2024-03-02T04:57:35;29.80;;;15.52;;
84820;SDS011;75463;50.988;11.332;2024-03-02T05:00:00;27.52;;;14.40;;
84820;SDS011;75463;50.988;11.332;2024-03-02T05:02:25;34.03;;;16.88;;
84820;SDS011;75463;50.988;11.332;2024-03-02T05:04:51;33.47;;;16.73;;
84820;SDS011;75463;50.988;11.332;2024-03-02T05:07:16;28.13;;;15.47;;
84820;SDS011;75463;50.988;11.332;2024-03-02T05:09:41;30.23;;;15.27;;
84820;SDS011;75463;50.988;11.332;2024-03-02T05:12:07;31.00;;;16.00;;
84820;SDS011;75463;50.988;11.332;2024-03-02T05:14:47;33.45;;;16.08;;
84820;SDS011;75463;50.988;11.332;2024-03-02T05:17:13;32.22;;;19.70;;
84820;SDS011;75463;50.988;11.332;2024-03-02T05:19:38;30.15;;;17.13;;
84820;SDS011;75463;50.988;11.332;2024-03-02T05:22:03;35.87;;;16.43;;
84820;SDS011;75463;50.988;11.332;2024-03-02T05:27:07;35.97;;;17.50;;
84820;SDS011;75463;50.988;11.332;2024-03-02T05:29:32;32.80;;;16.83;;
84820;SDS011;75463;50.988;11.332;2024-03-02T05:31:58;37.15;;;18.15;;
84820;SDS011;75463;50.988;11.332;2024-03-02T05:34:23;41.08;;;20.27;;
84820;SDS011;75463;50.988;11.332;2024-03-02T05:36:48;44.58;;;18.75;;
84820;SDS011;75463;50.988;11.332;2024-03-02T05:39:14;38.50;;;19.25;;
84820;SDS011;75463;50.988;11.332;2024-03-02T05:41:39;47.00;;;22.10;;
84820;SDS011;75463;50.988;11.332;2024-03-02T05:44:04;54.28;;;22.10;;
84820;SDS011;75463;50.988;11.332;2024-03-02T05:46:30;44.50;;;19.40;;
84820;SDS011;75463;50.988;11.332;2024-03-02T05:48:55;46.65;;;22.77;;
84820;SDS011;75463;50.988;11.332;2024-03-02T05:51:21;41.75;;;20.13;;
84820;SDS011;75463;50.988;11.332;2024-03-02T05:53:46;41.80;;;19.92;;
84820;SDS011;75463;50.988;11.332;2024-03-02T05:56:11;51.53;;;22.67;;
84820;SDS011;75463;50.988;11.332;2024-03-02T05:58:37;51.55;;;22.00;;
84820;SDS011;75463;50.988;11.332;2024-03-02T06:01:22;47.22;;;21.83;;
84820;SDS011;75463;50.988;11.332;2024-03-02T06:03:53;51.25;;;21.75;;
84820;SDS011;75463;50.988;11.332;2024-03-02T06:06:19;51.58;;;23.50;;
84820;SDS011;75463;50.988;11.332;2024-03-02T06:08:46;54.55;;;23.58;;
84820;SDS011;75463;50.988;11.332;2024-03-02T06:11:11;52.55;;;25.30;;
84820;SDS011;75463;50.988;11.332;2024-03-02T06:13:36;57.00;;;23.63;;
84820;SDS011;75463;50.988;11.332;2024-03-02T06:16:01;53.40;;;23.40;;
84820;SDS011;75463;50.988;11.332;2024-03-02T06:18:27;56.95;;;26.40;;
84820;SDS011;75463;50.988;11.332;2024-03-02T06:20:53;56.28;;;25.13;;
84820;SDS011;75463;50.988;11.332;2024-03-02T06:23:18;48.60;;;23.30;;
84820;SDS011;75463;50.988;11.332;2024-03-02T06:25:43;53.15;;;24.58;;
84820;SDS011;75463;50.988;11.332;2024-03-02T06:28:09;60.60;;;26.25;;
84820;SDS011;75463;50.988;11.332;2024-03-02T06:30:34;58.67;;;26.25;;
84820;SDS011;75463;50.988;11.332;2024-03-02T06:33:00;56.28;;;23.90;;
84820;SDS011;75463;50.988;11.332;2024-03-02T06:35:25;51.63;;;24.60;;
84820;SDS011;75463;50.988;11.332;2024-03-02T06:37:51;66.68;;;25.52;;
84820;SDS011;75463;50.988;11.332;2024-03-02T06:40:16;64.30;;;26.80;;
84820;SDS011;75463;50.988;11.332;2024-03-02T06:42:41;57.80;;;25.10;;
84820;SDS011;75463;50.988;11.332;2024-03-02T06:45:07;53.08;;;24.45;;
84820;SDS011;75463;50.988;11.332;2024-03-02T06:47:33;48.55;;;24.02;;
84820;SDS011;75463;50.988;11.332;2024-03-02T06:49:58;56.47;;;24.88;;
84820;SDS011;75463;50.988;11.332;2024-03-02T06:52:23;51.78;;;25.67;;
84820;SDS011;75463;50.988;11.332;2024-03-02T06:54:49;52.53;;;24.45;;
84820;SDS011;75463;50.988;11.332;2024-03-02T06:57:14;52.90;;;22.90;;
84820;SDS011;75463;50.988;11.332;2024-03-02T06:59:41;50.60;;;22.38;;
84820;SDS011;75463;50.988;11.332;2024-03-02T07:02:07;52.35;;;24.85;;
84820;SDS011;75463;50.988;11.332;2024-03-02T07:04:33;52.65;;;22.05;;
84820;SDS011;75463;50.988;11.332;2024-03-02T07:06:59;51.47;;;25.55;;
84820;SDS011;75463;50.988;11.332;2024-03-02T07:09:24;54.55;;;25.50;;
84820;SDS011;75463;50.988;11.332;2024-03-02T07:11:50;52.75;;;24.20;;
84820;SDS011;75463;50.988;11.332;2024-03-02T07:14:16;52.03;;;23.58;;
84820;SDS011;75463;50.988;11.332;2024-03-02T07:16:41;44.08;;;22.35;;
84820;SDS011;75463;50.988;11.332;2024-03-02T07:19:08;46.50;;;22.92;;
84820;SDS011;75463;50.988;11.332;2024-03-02T07:21:33;51.90;;;26.67;;
84820;SDS011;75463;50.988;11.332;2024-03-02T07:23:59;40.97;;;21.70;;
84820;SDS011;75463;50.988;11.332;2024-03-02T07:26:25;44.65;;;21.80;;
84820;SDS011;75463;50.988;11.332;2024-03-02T07:28:50;44.25;;;20.33;;
84820;SDS011;75463;50.988;11.332;2024-03-02T07:31:16;37.33;;;20.48;;
84820;SDS011;75463;50.988;11.332;2024-03-02T07:33:45;39.10;;;19.75;;
84820;SDS011;75463;50.988;11.332;2024-03-02T07:36:11;38.60;;;19.90;;
84820;SDS011;75463;50.988;11.332;2024-03-02T07:38:37;34.65;;;18.63;;
84820;SDS011;75463;50.988;11.332;2024-03-02T07:41:03;28.13;;;17.60;;
84820;SDS011;75463;50.988;11.332;2024-03-02T07:43:29;29.65;;;16.13;;
84820;SDS011;75463;50.988;11.332;2024-03-02T07:45:56;31.58;;;16.17;;
84820;SDS011;75463;50.988;11.332;2024-03-02T07:48:22;33.28;;;17.40;;
84820;SDS011;75463;50.988;11.332;2024-03-02T07:50:47;28.95;;;16.92;;
84820;SDS011;75463;50.988;11.332;2024-03-02T07:53:12;31.48;;;16.67;;
84820;SDS011;75463;50.988;11.332;2024-03-02T07:55:39;27.50;;;15.48;;
84820;SDS011;75463;50.988;11.332;2024-03-02T07:58:05;31.60;;;18.15;;
84820;SDS011;75463;50.988;11.332;2024-03-02T08:00:31;24.80;;;14.25;;
84820;SDS011;75463;50.988;11.332;2024-03-02T08:02:57;26.02;;;15.05;;
84820;SDS011;75463;50.988;11.332;2024-03-02T08:05:22;25.17;;;15.63;;
84820;SDS011;75463;50.988;11.332;2024-03-02T08:07:47;29.10;;;15.52;;
84820;SDS011;75463;50.988;11.332;2024-03-02T08:10:17;25.92;;;15.02;;
84820;SDS011;75463;50.988;11.332;2024-03-02T08:12:43;26.10;;;14.90;;
84820;SDS011;75463;50.988;11.332;2024-03-02T08:15:08;24.27;;;15.43;;
84820;SDS011;75463;50.988;11.332;2024-03-02T08:17:33;25.27;;;13.85;;
84820;SDS011;75463;50.988;11.332;2024-03-02T08:19:59;24.58;;;14.50;;
84820;SDS011;75463;50.988;11.332;2024-03-02T08:22:24;20.88;;;12.15;;
84820;SDS011;75463;50.988;11.332;2024-03-02T08:24:53;23.98;;;15.18;;
84820;SDS011;75463;50.988;11.332;2024-03-02T08:27:19;21.83;;;12.43;;
84820;SDS011;75463;50.988;11.332;2024-03-02T08:29:44;20.40;;;12.13;;
84820;SDS011;75463;50.988;11.332;2024-03-02T08:32:10;19.83;;;12.50;;
84820;SDS011;75463;50.988;11.332;2024-03-02T08:34:35;17.65;;;11.07;;
84820;SDS011;75463;50.988;11.332;2024-03-02T08:37:01;17.23;;;11.15;;
84820;SDS011;75463;50.988;11.332;2024-03-02T08:39:27;16.05;;;9.63;;
84820;SDS011;75463;50.988;11.332;2024-03-02T08:41:53;18.33;;;10.98;;
84820;SDS011;75463;50.988;11.332;2024-03-02T08:44:18;14.57;;;9.50;;
84820;SDS011;75463;50.988;11.332;2024-03-02T08:46:44;17.58;;;9.43;;
84820;SDS011;75463;50.988;11.332;2024-03-02T08:49:09;11.55;;;8.63;;
84820;SDS011;75463;50.988;11.332;2024-03-02T08:51:35;13.85;;;7.80;;
84820;SDS011;75463;50.988;11.332;2024-03-02T08:54:01;10.65;;;6.90;;
84820;SDS011;75463;50.988;11.332;2024-03-02T08:56:26;12.93;;;7.70;;
84820;SDS011;75463;50.988;11.332;2024-03-02T08:58:51;10.30;;;7.15;;
84820;SDS011;75463;50.988;11.332;2024-03-02T09:01:18;11.48;;;7.30;;
84820;SDS011;75463;50.988;11.332;2024-03-02T09:03:44;8.95;;;6.50;;
84820;SDS011;75463;50.988;11.332;2024-03-02T09:06:10;9.45;;;6.65;;
84820;SDS011;75463;50.988;11.332;2024-03-02T09:08:36;9.75;;;7.40;;
84820;SDS011;75463;50.988;11.332;2024-03-02T09:11:01;8.93;;;5.90;;
84820;SDS011;75463;50.988;11.332;2024-03-02T09:13:28;8.93;;;5.63;;
84820;SDS011;75463;50.988;11.332;2024-03-02T09:15:55;9.68;;;5.88;;
84820;SDS011;75463;50.988;11.332;2024-03-02T09:18:20;9.32;;;6.55;;
84820;SDS011;75463;50.988;11.332;2024-03-02T09:20:45;8.77;;;6.38;;
84820;SDS011;75463;50.988;11.332;2024-03-02T09:23:11;8.20;;;5.68;;
84820;SDS011;75463;50.988;11.332;2024-03-02T09:25:36;7.20;;;4.93;;
84820;SDS011;75463;50.988;11.332;2024-03-02T09:28:02;8.70;;;5.25;;
84820;SDS011;75463;50.988;11.332;2024-03-02T09:30:28;7.18;;;5.40;;
84820;SDS011;75463;50.988;11.332;2024-03-02T09:32:53;8.63;;;5.90;;
84820;SDS011;75463;50.988;11.332;2024-03-02T09:35:18;8.05;;;5.60;;
84820;SDS011;75463;50.988;11.332;2024-03-02T09:37:44;7.88;;;4.88;;
84820;SDS011;75463;50.988;11.332;2024-03-02T09:40:09;8.95;;;5.63;;
84820;SDS011;75463;50.988;11.332;2024-03-02T09:42:35;8.20;;;5.05;;
84820;SDS011;75463;50.988;11.332;2024-03-02T09:45:01;9.27;;;6.47;;
84820;SDS011;75463;50.988;11.332;2024-03-02T09:47:27;9.55;;;6.20;;
84820;SDS011;75463;50.988;11.332;2024-03-02T09:49:52;9.55;;;5.95;;
84820;SDS011;75463;50.988;11.332;2024-03-02T09:52:18;9.25;;;6.13;;
84820;SDS011;75463;50.988;11.332;2024-03-02T09:54:44;9.15;;;5.85;;
84820;SDS011;75463;50.988;11.332;2024-03-02T09:57:09;8.23;;;4.95;;
84820;SDS011;75463;50.988;11.332;2024-03-02T09:59:35;8.32;;;5.68;;
84820;SDS011;75463;50.988;11.332;2024-03-02T10:02:03;9.52;;;6.07;;
84820;SDS011;75463;50.988;11.332;2024-03-02T10:04:29;10.80;;;5.95;;
84820;SDS011;75463;50.988;11.332;2024-03-02T10:07:10;7.55;;;5.10;;
84820;SDS011;75463;50.988;11.332;2024-03-02T10:09:38;8.60;;;5.65;;
84820;SDS011;75463;50.988;11.332;2024-03-02T10:12:04;8.18;;;5.70;;
84820;SDS011;75463;50.988;11.332;2024-03-02T10:14:31;9.40;;;6.43;;
84820;SDS011;75463;50.988;11.332;2024-03-02T10:17:01;8.27;;;5.63;;
84820;SDS011;75463;50.988;11.332;2024-03-02T10:19:31;7.53;;;4.85;;
84820;SDS011;75463;50.988;11.332;2024-03-02T10:21:58;7.65;;;5.20;;
84820;SDS011;75463;50.988;11.332;2024-03-02T10:24:24;9.40;;;6.03;;
84820;SDS011;75463;50.988;11.332;2024-03-02T10:26:50;7.97;;;5.30;;
84820;SDS011;75463;50.988;11.332;2024-03-02T10:29:16;8.68;;;4.80;;
84820;SDS011;75463;50.988;11.332;2024-03-02T10:31:43;7.60;;;5.47;;
84820;SDS011;75463;50.988;11.332;2024-03-02T10:34:09;7.03;;;4.88;;
84820;SDS011;75463;50.988;11.332;2024-03-02T10:36:37;6.53;;;4.65;;
84820;SDS011;75463;50.988;11.332;2024-03-02T10:39:05;7.55;;;4.88;;
84820;SDS011;75463;50.988;11.332;2024-03-02T10:41:32;10.80;;;5.18;;
84820;SDS011;75463;50.988;11.332;2024-03-02T10:44:03;7.82;;;4.70;;
84820;SDS011;75463;50.988;11.332;2024-03-02T10:46:29;7.53;;;4.93;;
84820;SDS011;75463;50.988;11.332;2024-03-02T10:48:56;8.27;;;5.75;;
84820;SDS011;75463;50.988;11.332;2024-03-02T10:51:24;7.97;;;5.05;;
84820;SDS011;75463;50.988;11.332;2024-03-02T10:53:50;7.68;;;5.18;;
84820;SDS011;75463;50.988;11.332;2024-03-02T10:56:17;8.02;;;5.07;;
84820;SDS011;75463;50.988;11.332;2024-03-02T10:58:54;10.93;;;4.60;;
84820;SDS011;75463;50.988;11.332;2024-03-02T11:01:41;9.98;;;5.28;;
84820;SDS011;75463;50.988;11.332;2024-03-02T11:04:08;7.57;;;5.07;;
84820;SDS011;75463;50.988;11.332;2024-03-02T11:06:35;7.03;;;5.18;;
84820;SDS011;75463;50.988;11.332;2024-03-02T11:09:05;7.03;;;4.82;;
84820;SDS011;75463;50.988;11.332;2024-03-02T11:11:34;6.55;;;5.03;;
84820;SDS011;75463;50.988;11.332;2024-03-02T11:14:02;7.18;;;4.85;;
84820;SDS011;75463;50.988;11.332;2024-03-02T11:16:36;6.47;;;4.70;;
84820;SDS011;75463;50.988;11.332;2024-03-02T11:19:13;8.75;;;5.43;;
84820;SDS011;75463;50.988;11.332;2024-03-02T11:21:40;7.15;;;5.07;;
84820;SDS011;75463;50.988;11.332;2024-03-02T11:24:51;6.45;;;4.82;;
84820;SDS011;75463;50.988;11.332;2024-03-02T11:27:09;6.32;;;4.45;;
84820;SDS011;75463;50.988;11.332;2024-03-02T11:32:26;9.25;;;6.15;;
84820;SDS011;75463;50.988;11.332;2024-03-02T11:34:51;6.43;;;4.80;;
84820;SDS011;75463;50.988;11.332;2024-03-02T11:37:17;8.15;;;5.45;;
84820;SDS011;75463;50.988;11.332;2024-03-02T11:39:45;7.15;;;4.97;;
84820;SDS011;75463;50.988;11.332;2024-03-02T11:42:11;7.15;;;4.72;;
84820;SDS011;75463;50.988;11.332;2024-03-02T11:44:42;6.43;;;4.55;;
84820;SDS011;75463;50.988;11.332;2024-03-02T11:47:10;6.65;;;4.85;;
84820;SDS011;75463;50.988;11.332;2024-03-02T11:49:46;6.93;;;4.70;;
84820;SDS011;75463;50.988;11.332;2024-03-02T11:52:15;6.97;;;5.20;;
84820;SDS011;75463;50.988;11.332;2024-03-02T11:54:43;7.90;;;5.40;;
84820;SDS011;75463;50.988;11.332;2024-03-02T11:57:16;6.93;;;5.60;;
84820;SDS011;75463;50.988;11.332;2024-03-02T11:59:43;6.85;;;4.95;;
84820;SDS011;75463;50.988;11.332;2024-03-02T12:02:42;8.40;;;5.35;;
84820;SDS011;75463;50.988;11.332;2024-03-02T12:05:02;7.97;;;4.95;;
84820;SDS011;75463;50.988;11.332;2024-03-02T12:07:29;8.48;;;5.00;;
84820;SDS011;75463;50.988;11.332;2024-03-02T12:10:01;8.57;;;4.95;;
84820;SDS011;75463;50.988;11.332;2024-03-02T12:12:28;5.78;;;4.40;;
84820;SDS011;75463;50.988;11.332;2024-03-02T12:14:53;7.23;;;5.10;;
84820;SDS011;75463;50.988;11.332;2024-03-02T12:17:21;6.80;;;5.10;;
84820;SDS011;75463;50.988;11.332;2024-03-02T12:19:47;8.52;;;4.43;;
84820;SDS011;75463;50.988;11.332;2024-03-02T12:22:12;6.97;;;5.00;;
84820;SDS011;75463;50.988;11.332;2024-03-02T12:24:38;7.05;;;4.88;;
84820;SDS011;75463;50.988;11.332;2024-03-02T12:27:04;6.32;;;4.28;;
84820;SDS011;75463;50.988;11.332;2024-03-02T12:29:30;7.35;;;4.90;;
84820;SDS011;75463;50.988;11.332;2024-03-02T12:31:56;7.63;;;4.40;;
84820;SDS011;75463;50.988;11.332;2024-03-02T12:34:21;11.43;;;4.72;;
84820;SDS011;75463;50.988;11.332;2024-03-02T12:36:47;6.15;;;4.53;;
84820;SDS011;75463;50.988;11.332;2024-03-02T12:39:15;7.82;;;4.50;;
84820;SDS011;75463;50.988;11.332;2024-03-02T12:41:42;9.27;;;5.15;;
84820;SDS011;75463;50.988;11.332;2024-03-02T12:44:07;8.35;;;4.30;;
84820;SDS011;75463;50.988;11.332;2024-03-02T12:46:33;7.30;;;5.05;;
84820;SDS011;75463;50.988;11.332;2024-03-02T12:49:04;7.13;;;4.70;;
84820;SDS011;75463;50.988;11.332;2024-03-02T12:51:41;6.88;;;4.30;;
84820;SDS011;75463;50.988;11.332;2024-03-02T12:54:07;6.35;;;4.47;;
84820;SDS011;75463;50.988;11.332;2024-03-02T12:56:35;8.95;;;4.60;;
84820;SDS011;75463;50.988;11.332;2024-03-02T12:59:00;7.72;;;5.60;;
84820;SDS011;75463;50.988;11.332;2024-03-02T13:01:26;9.68;;;5.30;;
84820;SDS011;75463;50.988;11.332;2024-03-02T13:03:52;8.60;;;5.00;;
84820;SDS011;75463;50.988;11.332;2024-03-02T13:06:18;6.75;;;4.50;;
84820;SDS011;75463;50.988;11.332;2024-03-02T13:08:45;6.00;;;3.90;;
84820;SDS011;75463;50.988;11.332;2024-03-02T13:11:11;6.72;;;4.45;;
84820;SDS011;75463;50.988;11.332;2024-03-02T13:13:38;9.55;;;4.47;;
84820;SDS011;75463;50.988;11.332;2024-03-02T13:16:07;7.25;;;4.40;;
84820;SDS011;75463;50.988;11.332;2024-03-02T13:18:34;6.82;;;5.50;;
84820;SDS011;75463;50.988;11.332;2024-03-02T13:20:59;6.78;;;4.70;;
84820;SDS011;75463;50.988;11.332;2024-03-02T13:23:24;7.55;;;4.90;;
84820;SDS011;75463;50.988;11.332;2024-03-02T13:25:50;5.97;;;4.37;;
84820;SDS011;75463;50.988;11.332;2024-03-02T13:28:15;9.95;;;4.22;;
84820;SDS011;75463;50.988;11.332;2024-03-02T13:30:41;6.55;;;4.45;;
84820;SDS011;75463;50.988;11.332;2024-03-02T13:33:06;7.30;;;4.50;;
84820;SDS011;75463;50.988;11.332;2024-03-02T13:35:31;6.70;;;4.30;;
84820;SDS011;75463;50.988;11.332;2024-03-02T13:37:57;5.18;;;3.80;;
84820;SDS011;75463;50.988;11.332;2024-03-02T13:40:22;5.75;;;3.47;;
84820;SDS011;75463;50.988;11.332;2024-03-02T13:42:48;6.13;;;4.05;;
84820;SDS011;75463;50.988;11.332;2024-03-02T13:45:15;6.38;;;3.88;;
84820;SDS011;75463;50.988;11.332;2024-03-02T13:47:42;6.20;;;3.60;;
84820;SDS011;75463;50.988;11.332;2024-03-02T13:50:07;6.05;;;3.92;;
84820;SDS011;75463;50.988;11.332;2024-03-02T13:52:33;6.03;;;3.55;;
84820;SDS011;75463;50.988;11.332;2024-03-02T13:54:58;6.50;;;3.85;;
84820;SDS011;75463;50.988;11.332;2024-03-02T13:57:23;6.43;;;4.47;;
84820;SDS011;75463;50.988;11.332;2024-03-02T13:59:49;6.97;;;4.38;;
84820;SDS011;75463;50.988;11.332;2024-03-02T14:02:16;6.82;;;4.63;;
84820;SDS011;75463;50.988;11.332;2024-03-02T14:04:42;7.85;;;5.25;;
84820;SDS011;75463;50.988;11.332;2024-03-02T14:07:07;7.80;;;4.05;;
84820;SDS011;75463;50.988;11.332;2024-03-02T14:09:32;6.15;;;4.00;;
84820;SDS011;75463;50.988;11.332;2024-03-02T14:11:58;6.90;;;4.40;;
84820;SDS011;75463;50.988;11.332;2024-03-02T14:14:25;8.57;;;4.03;;
84820;SDS011;75463;50.988;11.332;2024-03-02T14:16:52;6.07;;;3.83;;
84820;SDS011;75463;50.988;11.332;2024-03-02T14:19:17;6.57;;;4.40;;
84820;SDS011;75463;50.988;11.332;2024-03-02T14:21:43;5.03;;;3.63;;
84820;SDS011;75463;50.988;11.332;2024-03-02T14:24:09;6.65;;;4.28;;